Nielsville, Minnesota
Current Conditions -  °F | °C
As of 2:14 AM on Monday 24 Nov 2014 (Local Time) from KCKN Reporting Station
Light Snow Light Snow  
Wind Chill: -5°   Ceiling: 1700
Heat Index: 14°   Visibility: 7mi
Dew Point: 10°   Wind: 25mph
Humidity: 86%   Direction: 350°N
Pressure: 29.58"   Gusts: 32mph
Location:  47.53°N, 96.82°W
Report Text: KCKN 240814Z AUTO 35022G28KT 7SM -SN OVC017 M10/M12 A2958 RMK AO2
Loading
Personal Weather Stations






























Interactive Weather Map New forecast layout! Learn more

10-Day Weather Forecast

Advertisements
Track Severe Weather on mobile